sensor_id;sensor_type;location;lat;lon;timestamp;pressure;altitude;pressure_sealevel;temperature;humidity
2339;BME280;1180;51.438;6.978;2023-05-01T00:01:26;100452.81;;;14.86;64.35
2339;BME280;1180;51.438;6.978;2023-05-01T00:03:52;100449.16;;;14.77;64.79
2339;BME280;1180;51.438;6.978;2023-05-01T00:06:18;100442.94;;;14.80;64.73
2339;BME280;1180;51.438;6.978;2023-05-01T00:08:43;100442.13;;;14.79;64.72
2339;BME280;1180;51.438;6.978;2023-05-01T00:11:09;100433.44;;;14.80;64.86
2339;BME280;1180;51.438;6.978;2023-05-01T00:13:36;100435.06;;;14.81;64.64
2339;BME280;1180;51.438;6.978;2023-05-01T00:16:09;100432.00;;;14.76;65.04
2339;BME280;1180;51.438;6.978;2023-05-01T00:18:35;100426.44;;;14.69;65.11
2339;BME280;1180;51.438;6.978;2023-05-01T00:21:01;100417.13;;;14.55;65.64
2339;BME280;1180;51.438;6.978;2023-05-01T00:23:27;100408.78;;;14.52;65.79
2339;BME280;1180;51.438;6.978;2023-05-01T00:25:52;100409.56;;;14.41;65.63
2339;BME280;1180;51.438;6.978;2023-05-01T00:28:18;100406.53;;;14.47;65.53
2339;BME280;1180;51.438;6.978;2023-05-01T00:30:43;100404.56;;;14.51;66.00
2339;BME280;1180;51.438;6.978;2023-05-01T00:33:10;100402.09;;;14.49;66.12
2339;BME280;1180;51.438;6.978;2023-05-01T00:35:35;100402.69;;;14.53;65.73
2339;BME280;1180;51.438;6.978;2023-05-01T00:38:01;100394.47;;;14.48;65.72
2339;BME280;1180;51.438;6.978;2023-05-01T00:40:26;100400.72;;;14.32;66.52
2339;BME280;1180;51.438;6.978;2023-05-01T00:42:52;100395.28;;;14.48;66.18
2339;BME280;1180;51.438;6.978;2023-05-01T00:45:17;100389.72;;;14.41;66.23
2339;BME280;1180;51.438;6.978;2023-05-01T00:47:43;100385.44;;;14.18;67.07
2339;BME280;1180;51.438;6.978;2023-05-01T00:50:08;100389.13;;;14.26;66.95
2339;BME280;1180;51.438;6.978;2023-05-01T00:52:34;100377.75;;;14.05;68.14
2339;BME280;1180;51.438;6.978;2023-05-01T00:55:00;100377.56;;;14.19;67.86
2339;BME280;1180;51.438;6.978;2023-05-01T00:57:25;100376.06;;;14.17;68.07
2339;BME280;1180;51.438;6.978;2023-05-01T00:59:51;100374.75;;;14.22;67.79
2339;BME280;1180;51.438;6.978;2023-05-01T01:02:16;100371.38;;;14.22;67.32
2339;BME280;1180;51.438;6.978;2023-05-01T01:04:44;100364.09;;;14.15;68.17
2339;BME280;1180;51.438;6.978;2023-05-01T01:12:53;100357.09;;;14.05;68.90
2339;BME280;1180;51.438;6.978;2023-05-01T01:15:32;100359.38;;;14.09;69.08
2339;BME280;1180;51.438;6.978;2023-05-01T01:18:12;100359.66;;;13.93;70.22
2339;BME280;1180;51.438;6.978;2023-05-01T01:21:06;100358.72;;;13.94;70.44
2339;BME280;1180;51.438;6.978;2023-05-01T01:23:48;100356.22;;;13.93;70.86
2339;BME280;1180;51.438;6.978;2023-05-01T01:26:26;100356.00;;;13.96;71.21
2339;BME280;1180;51.438;6.978;2023-05-01T01:29:29;100347.28;;;14.10;70.59
2339;BME280;1180;51.438;6.978;2023-05-01T01:34:46;100340.38;;;14.10;69.60
2339;BME280;1180;51.438;6.978;2023-05-01T01:37:47;100344.44;;;14.01;70.03
2339;BME280;1180;51.438;6.978;2023-05-01T01:40:19;100339.00;;;13.93;70.52
2339;BME280;1180;51.438;6.978;2023-05-01T01:42:58;100342.63;;;13.91;70.92
2339;BME280;1180;51.438;6.978;2023-05-01T01:45:35;100343.72;;;13.99;70.69
2339;BME280;1180;51.438;6.978;2023-05-01T01:48:04;100334.91;;;14.02;70.95
2339;BME280;1180;51.438;6.978;2023-05-01T01:50:32;100334.00;;;14.03;71.09
2339;BME280;1180;51.438;6.978;2023-05-01T01:53:01;100329.28;;;13.97;71.25
2339;BME280;1180;51.438;6.978;2023-05-01T01:55:30;100328.41;;;14.09;71.14
2339;BME280;1180;51.438;6.978;2023-05-01T01:57:58;100331.47;;;14.14;71.49
2339;BME280;1180;51.438;6.978;2023-05-01T02:00:24;100326.41;;;14.13;71.69
2339;BME280;1180;51.438;6.978;2023-05-01T02:02:52;100324.28;;;14.07;72.12
2339;BME280;1180;51.438;6.978;2023-05-01T02:05:20;100310.22;;;14.11;71.21
2339;BME280;1180;51.438;6.978;2023-05-01T02:07:47;100315.56;;;13.96;71.41
2339;BME280;1180;51.438;6.978;2023-05-01T02:10:14;100311.69;;;14.02;71.53
2339;BME280;1180;51.438;6.978;2023-05-01T02:12:47;100309.97;;;14.03;72.43
2339;BME280;1180;51.438;6.978;2023-05-01T02:15:16;100302.38;;;13.88;73.09
2339;BME280;1180;51.438;6.978;2023-05-01T02:17:43;100305.84;;;13.76;73.08
2339;BME280;1180;51.438;6.978;2023-05-01T02:20:10;100295.56;;;13.87;72.99
2339;BME280;1180;51.438;6.978;2023-05-01T02:22:38;100292.69;;;14.03;72.67
2339;BME280;1180;51.438;6.978;2023-05-01T02:25:07;100286.50;;;14.06;72.84
2339;BME280;1180;51.438;6.978;2023-05-01T02:27:37;100292.59;;;14.05;72.82
2339;BME280;1180;51.438;6.978;2023-05-01T02:30:05;100292.00;;;14.01;72.90
2339;BME280;1180;51.438;6.978;2023-05-01T02:32:31;100278.63;;;14.07;72.29
2339;BME280;1180;51.438;6.978;2023-05-01T02:34:57;100279.94;;;14.01;72.44
2339;BME280;1180;51.438;6.978;2023-05-01T02:37:23;100275.25;;;14.07;72.39
2339;BME280;1180;51.438;6.978;2023-05-01T02:39:49;100270.78;;;13.97;72.15
2339;BME280;1180;51.438;6.978;2023-05-01T02:42:16;100270.50;;;13.89;72.86
2339;BME280;1180;51.438;6.978;2023-05-01T02:44:58;100264.25;;;13.80;74.06
2339;BME280;1180;51.438;6.978;2023-05-01T02:47:26;100268.19;;;13.73;73.87
2339;BME280;1180;51.438;6.978;2023-05-01T02:49:53;100261.09;;;13.88;73.81
2339;BME280;1180;51.438;6.978;2023-05-01T02:52:19;100252.09;;;13.94;73.62
2339;BME280;1180;51.438;6.978;2023-05-01T02:54:47;100247.97;;;13.91;73.24
2339;BME280;1180;51.438;6.978;2023-05-01T02:57:15;100251.50;;;13.90;73.55
2339;BME280;1180;51.438;6.978;2023-05-01T02:59:41;100244.66;;;13.78;74.46
2339;BME280;1180;51.438;6.978;2023-05-01T03:02:06;100248.59;;;13.59;74.47
2339;BME280;1180;51.438;6.978;2023-05-01T03:04:32;100242.78;;;13.80;74.38
2339;BME280;1180;51.438;6.978;2023-05-01T03:06:57;100239.47;;;13.66;74.82
2339;BME280;1180;51.438;6.978;2023-05-01T03:09:22;100238.41;;;13.69;75.24
2339;BME280;1180;51.438;6.978;2023-05-01T03:11:48;100239.03;;;13.72;75.55
2339;BME280;1180;51.438;6.978;2023-05-01T03:14:13;100232.81;;;13.75;75.76
2339;BME280;1180;51.438;6.978;2023-05-01T03:16:38;100228.97;;;13.81;75.78
2339;BME280;1180;51.438;6.978;2023-05-01T03:19:05;100227.28;;;13.68;76.29
2339;BME280;1180;51.438;6.978;2023-05-01T03:21:31;100232.75;;;13.52;76.13
2339;BME280;1180;51.438;6.978;2023-05-01T03:23:57;100224.47;;;13.60;76.10
2339;BME280;1180;51.438;6.978;2023-05-01T03:26:22;100226.16;;;13.48;76.93
2339;BME280;1180;51.438;6.978;2023-05-01T03:28:47;100219.63;;;13.55;77.20
2339;BME280;1180;51.438;6.978;2023-05-01T03:31:13;100214.16;;;13.60;76.92
2339;BME280;1180;51.438;6.978;2023-05-01T03:33:38;100211.34;;;13.63;76.83
2339;BME280;1180;51.438;6.978;2023-05-01T03:36:04;100213.91;;;13.63;76.30
2339;BME280;1180;51.438;6.978;2023-05-01T03:38:30;100210.19;;;13.67;76.48
2339;BME280;1180;51.438;6.978;2023-05-01T03:40:56;100203.97;;;13.70;76.32
2339;BME280;1180;51.438;6.978;2023-05-01T03:43:22;100205.81;;;13.56;76.88
2339;BME280;1180;51.438;6.978;2023-05-01T03:45:48;100203.31;;;13.55;76.66
2339;BME280;1180;51.438;6.978;2023-05-01T03:48:14;100197.13;;;13.57;77.01
2339;BME280;1180;51.438;6.978;2023-05-01T03:50:39;100194.88;;;13.53;77.05
2339;BME280;1180;51.438;6.978;2023-05-01T03:53:05;100195.56;;;13.43;78.16
2339;BME280;1180;51.438;6.978;2023-05-01T03:55:30;100193.59;;;13.47;77.39
2339;BME280;1180;51.438;6.978;2023-05-01T03:57:55;100192.16;;;13.43;77.54
2339;BME280;1180;51.438;6.978;2023-05-01T04:00:21;100199.13;;;13.41;77.58
2339;BME280;1180;51.438;6.978;2023-05-01T04:02:46;100202.09;;;13.23;78.69
2339;BME280;1180;51.438;6.978;2023-05-01T04:05:12;100191.63;;;13.38;77.66
2339;BME280;1180;51.438;6.978;2023-05-01T04:07:39;100190.06;;;13.48;77.33
2339;BME280;1180;51.438;6.978;2023-05-01T04:10:04;100193.16;;;13.40;77.30
2339;BME280;1180;51.438;6.978;2023-05-01T04:12:31;100187.03;;;13.30;78.03
2339;BME280;1180;51.438;6.978;2023-05-01T04:14:56;100188.22;;;13.37;78.27
2339;BME280;1180;51.438;6.978;2023-05-01T04:17:21;100184.72;;;13.38;78.11
2339;BME280;1180;51.438;6.978;2023-05-01T04:19:47;100189.09;;;13.25;78.55
2339;BME280;1180;51.438;6.978;2023-05-01T04:22:12;100190.97;;;13.23;78.65
2339;BME280;1180;51.438;6.978;2023-05-01T04:24:38;100185.81;;;13.23;78.25
2339;BME280;1180;51.438;6.978;2023-05-01T04:27:03;100192.19;;;13.30;78.14
2339;BME280;1180;51.438;6.978;2023-05-01T04:29:29;100184.88;;;13.24;78.30
2339;BME280;1180;51.438;6.978;2023-05-01T04:31:55;100187.34;;;13.25;78.40
2339;BME280;1180;51.438;6.978;2023-05-01T04:34:21;100179.53;;;13.27;77.93
2339;BME280;1180;51.438;6.978;2023-05-01T04:36:46;100179.00;;;13.22;78.65
2339;BME280;1180;51.438;6.978;2023-05-01T04:39:11;100183.81;;;13.15;78.67
2339;BME280;1180;51.438;6.978;2023-05-01T04:41:37;100181.63;;;13.09;79.42
2339;BME280;1180;51.438;6.978;2023-05-01T04:44:02;100176.69;;;13.06;80.52
2339;BME280;1180;51.438;6.978;2023-05-01T04:46:27;100185.31;;;13.18;80.18
2339;BME280;1180;51.438;6.978;2023-05-01T04:48:53;100181.94;;;13.17;80.53
2339;BME280;1180;51.438;6.978;2023-05-01T04:51:18;100173.84;;;13.22;80.71
2339;BME280;1180;51.438;6.978;2023-05-01T04:53:44;100180.78;;;13.21;81.22
2339;BME280;1180;51.438;6.978;2023-05-01T04:56:10;100179.69;;;13.12;81.50
2339;BME280;1180;51.438;6.978;2023-05-01T04:58:35;100180.16;;;13.18;80.58
2339;BME280;1180;51.438;6.978;2023-05-01T05:01:00;100180.84;;;13.08;80.40
2339;BME280;1180;51.438;6.978;2023-05-01T05:03:26;100188.03;;;13.16;80.40
2339;BME280;1180;51.438;6.978;2023-05-01T05:05:51;100180.66;;;13.23;79.76
2339;BME280;1180;51.438;6.978;2023-05-01T05:08:16;100176.34;;;13.23;79.57
2339;BME280;1180;51.438;6.978;2023-05-01T05:10:42;100180.25;;;13.29;78.66
2339;BME280;1180;51.438;6.978;2023-05-01T05:13:07;100178.72;;;13.38;78.69
2339;BME280;1180;51.438;6.978;2023-05-01T05:15:34;100178.34;;;13.44;77.76
2339;BME280;1180;51.438;6.978;2023-05-01T05:17:59;100181.44;;;13.36;77.95
2339;BME280;1180;51.438;6.978;2023-05-01T05:20:25;100183.66;;;13.41;78.21
2339;BME280;1180;51.438;6.978;2023-05-01T05:22:51;100182.25;;;13.37;79.19
2339;BME280;1180;51.438;6.978;2023-05-01T05:25:16;100180.03;;;13.32;79.56
2339;BME280;1180;51.438;6.978;2023-05-01T05:27:42;100181.31;;;13.38;80.55
2339;BME280;1180;51.438;6.978;2023-05-01T05:30:07;100179.06;;;13.57;80.33
2339;BME280;1180;51.438;6.978;2023-05-01T05:32:33;100176.75;;;13.66;80.34
2339;BME280;1180;51.438;6.978;2023-05-01T05:34:58;100181.88;;;13.54;81.19
2339;BME280;1180;51.438;6.978;2023-05-01T05:37:24;100177.69;;;13.65;81.94
2339;BME280;1180;51.438;6.978;2023-05-01T05:39:50;100177.00;;;13.74;81.59
2339;BME280;1180;51.438;6.978;2023-05-01T05:42:16;100171.84;;;13.74;80.58
2339;BME280;1180;51.438;6.978;2023-05-01T05:44:41;100167.28;;;13.66;80.55
2339;BME280;1180;51.438;6.978;2023-05-01T05:47:07;100174.41;;;13.74;80.46
2339;BME280;1180;51.438;6.978;2023-05-01T05:49:32;100170.81;;;13.88;80.26
2339;BME280;1180;51.438;6.978;2023-05-01T05:51:57;100171.44;;;13.92;79.65
2339;BME280;1180;51.438;6.978;2023-05-01T05:54:23;100179.31;;;14.13;78.16
2339;BME280;1180;51.438;6.978;2023-05-01T05:56:48;100172.28;;;14.26;77.86
2339;BME280;1180;51.438;6.978;2023-05-01T05:59:14;100169.25;;;14.33;77.53
2339;BME280;1180;51.438;6.978;2023-05-01T06:01:39;100168.28;;;14.45;77.80
2339;BME280;1180;51.438;6.978;2023-05-01T06:04:06;100166.16;;;14.50;76.28
2339;BME280;1180;51.438;6.978;2023-05-01T06:06:32;100168.38;;;14.66;76.48
2339;BME280;1180;51.438;6.978;2023-05-01T06:08:58;100168.97;;;14.70;76.26
2339;BME280;1180;51.438;6.978;2023-05-01T06:11:23;100171.69;;;14.80;75.41
2339;BME280;1180;51.438;6.978;2023-05-01T06:13:48;100174.84;;;14.83;74.69
2339;BME280;1180;51.438;6.978;2023-05-01T06:16:14;100172.25;;;14.95;73.50
2339;BME280;1180;51.438;6.978;2023-05-01T06:18:40;100174.78;;;15.06;73.83
2339;BME280;1180;51.438;6.978;2023-05-01T06:21:05;100175.75;;;15.05;73.60
2339;BME280;1180;51.438;6.978;2023-05-01T06:23:31;100173.59;;;15.10;72.58
2339;BME280;1180;51.438;6.978;2023-05-01T06:25:58;100170.97;;;15.22;71.34
2339;BME280;1180;51.438;6.978;2023-05-01T06:28:24;100170.50;;;15.28;69.62
2339;BME280;1180;51.438;6.978;2023-05-01T06:30:50;100170.09;;;15.44;69.25
2339;BME280;1180;51.438;6.978;2023-05-01T06:33:15;100169.41;;;15.63;69.00
2339;BME280;1180;51.438;6.978;2023-05-01T06:35:41;100174.06;;;15.69;66.96
2339;BME280;1180;51.438;6.978;2023-05-01T06:38:06;100169.50;;;15.62;66.77
2339;BME280;1180;51.438;6.978;2023-05-01T06:40:31;100170.00;;;15.77;65.81
2339;BME280;1180;51.438;6.978;2023-05-01T06:42:59;100162.53;;;15.95;65.57
2339;BME280;1180;51.438;6.978;2023-05-01T06:45:25;100161.38;;;16.09;64.97
2339;BME280;1180;51.438;6.978;2023-05-01T06:47:50;100162.69;;;16.24;65.24
2339;BME280;1180;51.438;6.978;2023-05-01T06:50:15;100161.34;;;16.40;64.66
2339;BME280;1180;51.438;6.978;2023-05-01T06:52:42;100166.44;;;16.51;64.40
2339;BME280;1180;51.438;6.978;2023-05-01T06:55:08;100164.69;;;16.62;63.36
2339;BME280;1180;51.438;6.978;2023-05-01T06:57:33;100167.97;;;16.73;63.48
2339;BME280;1180;51.438;6.978;2023-05-01T06:59:59;100160.09;;;16.85;63.65
2339;BME280;1180;51.438;6.978;2023-05-01T07:02:24;100163.69;;;16.94;63.65
2339;BME280;1180;51.438;6.978;2023-05-01T07:04:49;100164.75;;;16.91;61.16
2339;BME280;1180;51.438;6.978;2023-05-01T07:07:15;100168.34;;;17.00;60.11
2339;BME280;1180;51.438;6.978;2023-05-01T07:09:40;100163.84;;;17.12;60.29
2339;BME280;1180;51.438;6.978;2023-05-01T07:12:05;100169.44;;;17.17;60.95
2339;BME280;1180;51.438;6.978;2023-05-01T07:14:33;100168.50;;;17.28;61.01
2339;BME280;1180;51.438;6.978;2023-05-01T07:16:58;100172.16;;;17.35;60.34
2339;BME280;1180;51.438;6.978;2023-05-01T07:19:24;100164.78;;;17.40;60.28
2339;BME280;1180;51.438;6.978;2023-05-01T07:21:49;100164.78;;;17.40;60.04
2339;BME280;1180;51.438;6.978;2023-05-01T07:24:14;100159.06;;;17.46;59.15
2339;BME280;1180;51.438;6.978;2023-05-01T07:26:40;100165.59;;;17.51;58.07
2339;BME280;1180;51.438;6.978;2023-05-01T07:29:06;100166.00;;;17.56;57.45
2339;BME280;1180;51.438;6.978;2023-05-01T07:31:31;100166.13;;;17.64;58.35
2339;BME280;1180;51.438;6.978;2023-05-01T07:33:56;100164.06;;;17.68;59.16
2339;BME280;1180;51.438;6.978;2023-05-01T07:36:22;100164.22;;;17.76;58.40
2339;BME280;1180;51.438;6.978;2023-05-01T07:38:48;100162.41;;;17.76;57.74
2339;BME280;1180;51.438;6.978;2023-05-01T07:41:13;100161.34;;;17.79;59.16
2339;BME280;1180;51.438;6.978;2023-05-01T07:43:38;100156.25;;;17.78;56.93
2339;BME280;1180;51.438;6.978;2023-05-01T07:46:04;100163.78;;;17.81;56.39
2339;BME280;1180;51.438;6.978;2023-05-01T07:48:30;100155.84;;;17.82;57.36
2339;BME280;1180;51.438;6.978;2023-05-01T07:50:56;100159.53;;;17.89;56.80
2339;BME280;1180;51.438;6.978;2023-05-01T07:53:22;100147.75;;;17.95;57.53
2339;BME280;1180;51.438;6.978;2023-05-01T07:55:47;100154.59;;;17.96;56.61
2339;BME280;1180;51.438;6.978;2023-05-01T07:58:13;100156.91;;;18.09;57.67
2339;BME280;1180;51.438;6.978;2023-05-01T08:00:39;100157.56;;;18.11;56.38
2339;BME280;1180;51.438;6.978;2023-05-01T08:03:04;100150.00;;;18.18;55.85
2339;BME280;1180;51.438;6.978;2023-05-01T08:05:30;100147.38;;;18.28;55.09
2339;BME280;1180;51.438;6.978;2023-05-01T08:07:56;100139.75;;;18.26;54.83
2339;BME280;1180;51.438;6.978;2023-05-01T08:10:21;100144.06;;;18.36;55.15
2339;BME280;1180;51.438;6.978;2023-05-01T08:12:46;100142.94;;;18.38;55.26
2339;BME280;1180;51.438;6.978;2023-05-01T08:15:12;100141.13;;;18.48;55.08
2339;BME280;1180;51.438;6.978;2023-05-01T08:17:37;100139.34;;;18.49;54.34
2339;BME280;1180;51.438;6.978;2023-05-01T08:20:03;100148.72;;;18.60;54.76
2339;BME280;1180;51.438;6.978;2023-05-01T08:22:28;100146.34;;;18.67;54.79
2339;BME280;1180;51.438;6.978;2023-05-01T08:24:54;100139.06;;;18.70;54.65
2339;BME280;1180;51.438;6.978;2023-05-01T08:27:20;100143.09;;;18.65;54.54
2339;BME280;1180;51.438;6.978;2023-05-01T08:29:45;100143.03;;;18.74;53.81
2339;BME280;1180;51.438;6.978;2023-05-01T08:32:11;100144.06;;;18.82;54.00
2339;BME280;1180;51.438;6.978;2023-05-01T08:34:36;100139.00;;;18.80;53.91
2339;BME280;1180;51.438;6.978;2023-05-01T08:37:01;100139.97;;;18.97;53.70
2339;BME280;1180;51.438;6.978;2023-05-01T08:39:27;100132.88;;;18.99;52.88
2339;BME280;1180;51.438;6.978;2023-05-01T08:41:52;100142.41;;;19.09;53.22
2339;BME280;1180;51.438;6.978;2023-05-01T08:44:19;100140.47;;;19.11;53.02
2339;BME280;1180;51.438;6.978;2023-05-01T08:46:51;100142.00;;;19.22;53.65
2339;BME280;1180;51.438;6.978;2023-05-01T08:49:18;100137.22;;;19.35;53.31
2339;BME280;1180;51.438;6.978;2023-05-01T08:51:46;100138.69;;;19.38;53.19
2339;BME280;1180;51.438;6.978;2023-05-01T08:54:13;100135.13;;;19.39;52.06
2339;BME280;1180;51.438;6.978;2023-05-01T08:56:44;100140.84;;;19.42;53.09
2339;BME280;1180;51.438;6.978;2023-05-01T08:59:12;100136.31;;;19.44;53.21
2339;BME280;1180;51.438;6.978;2023-05-01T09:01:40;100140.06;;;19.42;51.63
2339;BME280;1180;51.438;6.978;2023-05-01T09:04:06;100137.91;;;19.37;52.23
2339;BME280;1180;51.438;6.978;2023-05-01T09:06:34;100137.47;;;19.42;52.37
2339;BME280;1180;51.438;6.978;2023-05-01T09:09:00;100133.75;;;19.53;52.50
2339;BME280;1180;51.438;6.978;2023-05-01T09:11:26;100135.66;;;19.69;52.15
2339;BME280;1180;51.438;6.978;2023-05-01T09:13:52;100126.78;;;19.80;52.07
2339;BME280;1180;51.438;6.978;2023-05-01T09:16:18;100132.78;;;19.98;51.98
2339;BME280;1180;51.438;6.978;2023-05-01T09:18:45;100136.06;;;20.09;51.81
2339;BME280;1180;51.438;6.978;2023-05-01T09:21:10;100133.84;;;20.22;52.24
2339;BME280;1180;51.438;6.978;2023-05-01T09:23:36;100127.19;;;20.28;51.21
2339;BME280;1180;51.438;6.978;2023-05-01T09:26:06;100125.44;;;20.45;51.00
2339;BME280;1180;51.438;6.978;2023-05-01T09:28:46;100126.94;;;20.64;49.88
2339;BME280;1180;51.438;6.978;2023-05-01T09:31:21;100130.38;;;20.56;49.94
2339;BME280;1180;51.438;6.978;2023-05-01T09:33:56;100133.16;;;20.71;50.17
2339;BME280;1180;51.438;6.978;2023-05-01T09:36:23;100131.59;;;20.95;52.01
2339;BME280;1180;51.438;6.978;2023-05-01T09:38:48;100136.31;;;21.16;52.29
2339;BME280;1180;51.438;6.978;2023-05-01T09:41:14;100128.31;;;21.26;49.79
2339;BME280;1180;51.438;6.978;2023-05-01T09:43:40;100123.56;;;21.46;50.89
2339;BME280;1180;51.438;6.978;2023-05-01T09:46:07;100121.28;;;21.68;49.99
2339;BME280;1180;51.438;6.978;2023-05-01T09:48:37;100118.00;;;21.58;46.62
2339;BME280;1180;51.438;6.978;2023-05-01T09:51:32;100118.97;;;21.73;49.40
2339;BME280;1180;51.438;6.978;2023-05-01T09:54:00;100117.78;;;21.92;49.41
2339;BME280;1180;51.438;6.978;2023-05-01T09:56:28;100117.22;;;22.05;48.31
2339;BME280;1180;51.438;6.978;2023-05-01T09:58:54;100113.56;;;22.23;48.34
2339;BME280;1180;51.438;6.978;2023-05-01T10:01:39;100121.16;;;22.41;48.49
2339;BME280;1180;51.438;6.978;2023-05-01T10:04:05;100118.56;;;22.33;48.47
2339;BME280;1180;51.438;6.978;2023-05-01T10:06:30;100115.44;;;22.38;46.68
2339;BME280;1180;51.438;6.978;2023-05-01T10:08:56;100118.88;;;22.46;45.78
2339;BME280;1180;51.438;6.978;2023-05-01T10:11:22;100112.88;;;22.29;46.07
2339;BME280;1180;51.438;6.978;2023-05-01T10:14:08;100107.25;;;22.41;46.41
2339;BME280;1180;51.438;6.978;2023-05-01T10:16:36;100103.97;;;22.47;45.78
2339;BME280;1180;51.438;6.978;2023-05-01T10:19:02;100111.13;;;22.53;46.48
2339;BME280;1180;51.438;6.978;2023-05-01T10:21:29;100105.22;;;22.59;46.61
2339;BME280;1180;51.438;6.978;2023-05-01T10:23:54;100115.13;;;22.72;47.07
2339;BME280;1180;51.438;6.978;2023-05-01T10:26:20;100115.56;;;22.76;46.40
2339;BME280;1180;51.438;6.978;2023-05-01T10:28:47;100116.94;;;22.87;46.79
2339;BME280;1180;51.438;6.978;2023-05-01T10:31:14;100116.44;;;22.91;45.97
2339;BME280;1180;51.438;6.978;2023-05-01T10:33:41;100111.25;;;23.06;45.29
2339;BME280;1180;51.438;6.978;2023-05-01T10:36:11;100112.78;;;23.16;44.68
2339;BME280;1180;51.438;6.978;2023-05-01T10:38:39;100108.09;;;23.11;43.07
2339;BME280;1180;51.438;6.978;2023-05-01T10:41:05;100109.19;;;23.17;43.77
2339;BME280;1180;51.438;6.978;2023-05-01T10:43:30;100106.94;;;23.14;42.96
2339;BME280;1180;51.438;6.978;2023-05-01T10:53:34;100097.06;;;23.54;42.78
2339;BME280;1180;51.438;6.978;2023-05-01T10:56:00;100100.56;;;23.31;42.08
2339;BME280;1180;51.438;6.978;2023-05-01T11:01:35;100089.09;;;23.32;43.70
2339;BME280;1180;51.438;6.978;2023-05-01T11:04:02;100081.72;;;23.36;43.81
2339;BME280;1180;51.438;6.978;2023-05-01T11:06:29;100085.31;;;23.35;43.18
2339;BME280;1180;51.438;6.978;2023-05-01T11:08:55;100086.03;;;23.29;43.81
2339;BME280;1180;51.438;6.978;2023-05-01T11:13:59;100084.81;;;22.55;43.79
2339;BME280;1180;51.438;6.978;2023-05-01T11:21:46;100072.47;;;22.87;43.92
2339;BME280;1180;51.438;6.978;2023-05-01T11:24:12;100075.22;;;22.93;42.69
2339;BME280;1180;51.438;6.978;2023-05-01T11:26:39;100081.19;;;22.79;42.51
2339;BME280;1180;51.438;6.978;2023-05-01T11:29:05;100075.94;;;23.02;43.83
2339;BME280;1180;51.438;6.978;2023-05-01T11:31:31;100072.34;;;23.18;43.35
2339;BME280;1180;51.438;6.978;2023-05-01T11:33:58;100072.75;;;23.30;42.13
2339;BME280;1180;51.438;6.978;2023-05-01T11:36:24;100072.69;;;23.39;42.87
2339;BME280;1180;51.438;6.978;2023-05-01T11:38:53;100071.06;;;23.38;41.75
2339;BME280;1180;51.438;6.978;2023-05-01T11:41:21;100075.47;;;23.37;42.56
2339;BME280;1180;51.438;6.978;2023-05-01T11:43:56;100066.94;;;23.20;43.39
2339;BME280;1180;51.438;6.978;2023-05-01T11:46:26;100068.72;;;23.28;42.77
2339;BME280;1180;51.438;6.978;2023-05-01T11:48:59;100073.59;;;23.31;44.44
2339;BME280;1180;51.438;6.978;2023-05-01T11:51:28;100067.25;;;23.40;43.69
2339;BME280;1180;51.438;6.978;2023-05-01T11:56:25;100067.94;;;23.19;44.80
2339;BME280;1180;51.438;6.978;2023-05-01T11:58:52;100056.13;;;23.23;44.19
2339;BME280;1180;51.438;6.978;2023-05-01T12:01:18;100060.03;;;23.27;44.81
2339;BME280;1180;51.438;6.978;2023-05-01T12:03:43;100058.50;;;23.48;43.88
2339;BME280;1180;51.438;6.978;2023-05-01T12:06:10;100065.63;;;23.69;41.42
2339;BME280;1180;51.438;6.978;2023-05-01T12:08:41;100064.75;;;23.62;41.01
2339;BME280;1180;51.438;6.978;2023-05-01T12:11:07;100059.03;;;23.28;39.93
2339;BME280;1180;51.438;6.978;2023-05-01T12:13:34;100061.16;;;23.10;40.39
2339;BME280;1180;51.438;6.978;2023-05-01T12:15:59;100068.81;;;23.11;40.94
2339;BME280;1180;51.438;6.978;2023-05-01T12:18:25;100065.81;;;22.99;41.01
2339;BME280;1180;51.438;6.978;2023-05-01T12:20:53;100049.69;;;22.96;40.71
2339;BME280;1180;51.438;6.978;2023-05-01T12:23:35;100052.38;;;22.87;40.72
2339;BME280;1180;51.438;6.978;2023-05-01T12:26:22;100063.72;;;22.56;41.03
2339;BME280;1180;51.438;6.978;2023-05-01T12:28:56;100061.19;;;22.40;40.93
2339;BME280;1180;51.438;6.978;2023-05-01T12:31:23;100060.31;;;22.24;41.77
2339;BME280;1180;51.438;6.978;2023-05-01T12:34:03;100064.34;;;22.03;44.74
2339;BME280;1180;51.438;6.978;2023-05-01T12:36:31;100060.22;;;21.69;45.00
2339;BME280;1180;51.438;6.978;2023-05-01T12:39:02;100054.81;;;21.62;48.06
2339;BME280;1180;51.438;6.978;2023-05-01T12:41:35;100051.06;;;21.73;51.16
2339;BME280;1180;51.438;6.978;2023-05-01T12:44:13;100055.63;;;21.79;49.91
2339;BME280;1180;51.438;6.978;2023-05-01T12:46:39;100050.69;;;21.85;49.11
2339;BME280;1180;51.438;6.978;2023-05-01T12:49:05;100043.63;;;21.93;48.34
2339;BME280;1180;51.438;6.978;2023-05-01T12:51:31;100042.94;;;22.00;48.99
2339;BME280;1180;51.438;6.978;2023-05-01T12:53:57;100039.63;;;22.14;48.70
2339;BME280;1180;51.438;6.978;2023-05-01T12:56:23;100038.56;;;22.24;48.53
2339;BME280;1180;51.438;6.978;2023-05-01T12:58:50;100035.09;;;22.31;47.63
2339;BME280;1180;51.438;6.978;2023-05-01T13:01:27;100035.09;;;22.31;44.25
2339;BME280;1180;51.438;6.978;2023-05-01T13:03:53;100036.31;;;22.44;45.62
2339;BME280;1180;51.438;6.978;2023-05-01T13:06:30;100036.94;;;22.54;45.71
2339;BME280;1180;51.438;6.978;2023-05-01T13:09:08;100036.41;;;22.59;44.83
2339;BME280;1180;51.438;6.978;2023-05-01T13:11:34;100022.06;;;22.55;42.40
2339;BME280;1180;51.438;6.978;2023-05-01T13:14:06;100025.56;;;22.39;42.83
2339;BME280;1180;51.438;6.978;2023-05-01T13:16:32;100032.03;;;22.51;43.35
2339;BME280;1180;51.438;6.978;2023-05-01T13:18:57;100032.72;;;22.68;45.47
2339;BME280;1180;51.438;6.978;2023-05-01T13:21:23;100026.81;;;22.74;43.91
2339;BME280;1180;51.438;6.978;2023-05-01T13:23:54;100026.84;;;22.89;42.23
2339;BME280;1180;51.438;6.978;2023-05-01T13:26:30;100021.88;;;22.94;39.63
2339;BME280;1180;51.438;6.978;2023-05-01T13:28:58;100036.34;;;23.05;42.14
2339;BME280;1180;51.438;6.978;2023-05-01T13:31:25;100030.97;;;22.84;40.65
2339;BME280;1180;51.438;6.978;2023-05-01T13:33:52;100034.34;;;22.92;39.44
2339;BME280;1180;51.438;6.978;2023-05-01T13:36:17;100018.19;;;23.04;39.90
2339;BME280;1180;51.438;6.978;2023-05-01T13:38:45;100021.94;;;23.25;41.17
2339;BME280;1180;51.438;6.978;2023-05-01T13:41:21;100020.31;;;23.54;41.54